createdAt,value
2023-05-11T00:02:55.445Z,100764.34
2023-05-11T00:06:01.405Z,100765.16
2023-05-11T00:09:08.027Z,100761.72
2023-05-11T00:12:14.466Z,100760.94
2023-05-11T00:15:20.035Z,100762.78
2023-05-11T00:18:26.087Z,100762.38
2023-05-11T00:21:32.587Z,100757.81
2023-05-11T00:24:39.747Z,100753.47
2023-05-11T00:27:46.547Z,100759.13
2023-05-11T00:30:59.333Z,100744.38
2023-05-11T00:34:04.845Z,100749.97
2023-05-11T00:37:11.202Z,100747.50
2023-05-11T00:40:17.112Z,100750.34
2023-05-11T00:43:22.834Z,100746.66
2023-05-11T00:46:28.873Z,100745.94
2023-05-11T00:49:34.349Z,100735.06
2023-05-11T00:52:42.118Z,100733.47
2023-05-11T00:55:47.727Z,100738.25
2023-05-11T00:58:53.588Z,100735.34
2023-05-11T01:01:59.951Z,100739.22
2023-05-11T01:05:06.515Z,100730.38
2023-05-11T01:08:19.517Z,100731.72
2023-05-11T01:11:34.551Z,100726.56
2023-05-11T01:14:48.633Z,100736.28
2023-05-11T01:18:17.160Z,100729.56
2023-05-11T01:21:22.909Z,100736.19
2023-05-11T01:24:31.381Z,100733.34
2023-05-11T01:28:11.957Z,100731.59
2023-05-11T01:31:19.721Z,100731.13
2023-05-11T01:34:30.969Z,100732.91
2023-05-11T01:37:39.214Z,100736.19
2023-05-11T01:40:51.848Z,100734.66
2023-05-11T01:44:01.129Z,100731.16
2023-05-11T01:47:08.928Z,100721.53
2023-05-11T01:50:18.001Z,100723.09
2023-05-11T01:53:24.704Z,100725.75
2023-05-11T01:56:31.941Z,100722.34
2023-05-11T01:59:40.903Z,100727.38
2023-05-11T02:02:49.702Z,100729.22
2023-05-11T02:05:58.243Z,100725.09
2023-05-11T02:09:05.819Z,100723.72
2023-05-11T02:12:14.311Z,100717.56
2023-05-11T02:15:22.010Z,100716.38
2023-05-11T02:18:29.333Z,100721.53
2023-05-11T02:21:38.723Z,100723.00
2023-05-11T02:24:44.942Z,100724.41
2023-05-11T02:27:50.396Z,100717.00
2023-05-11T02:31:01.075Z,100711.75
2023-05-11T02:34:21.407Z,100715.69
2023-05-11T02:37:28.169Z,100709.47
2023-05-11T02:40:51.154Z,100715.47
2023-05-11T02:44:04.250Z,100712.47
2023-05-11T02:47:16.170Z,100706.72
2023-05-11T02:50:24.704Z,100700.94
2023-05-11T02:53:33.601Z,100708.72
2023-05-11T02:56:39.845Z,100703.16
2023-05-11T02:59:46.857Z,100705.03
2023-05-11T03:02:53.208Z,100703.97
2023-05-11T03:06:01.151Z,100702.25
2023-05-11T03:09:09.324Z,100709.47
2023-05-11T03:12:21.851Z,100714.59
2023-05-11T03:15:28.898Z,100718.38
2023-05-11T03:18:37.531Z,100713.53
2023-05-11T03:21:43.630Z,100708.25
2023-05-11T03:24:50.719Z,100699.28
2023-05-11T03:27:59.478Z,100693.47
2023-05-11T03:31:07.420Z,100698.41
2023-05-11T03:34:13.659Z,100700.91
2023-05-11T03:37:21.861Z,100695.47
2023-05-11T03:40:33.588Z,100693.69
2023-05-11T03:43:41.557Z,100701.81
2023-05-11T03:46:48.854Z,100693.97
2023-05-11T03:49:56.931Z,100684.28
2023-05-11T03:53:04.748Z,100679.03
2023-05-11T03:56:10.945Z,100678.28
2023-05-11T03:59:17.147Z,100665.72
2023-05-11T04:02:24.876Z,100662.50
2023-05-11T04:05:30.622Z,100665.47
2023-05-11T04:08:37.471Z,100671.31
2023-05-11T04:11:42.818Z,100668.97
2023-05-11T04:14:48.433Z,100659.31
2023-05-11T04:17:53.694Z,100664.91
2023-05-11T04:21:00.114Z,100672.63
2023-05-11T04:24:06.624Z,100678.03
2023-05-11T04:27:12.202Z,100678.59
2023-05-11T04:30:19.741Z,100686.25
2023-05-11T04:33:25.637Z,100685.06
2023-05-11T04:36:33.343Z,100689.97
2023-05-11T04:39:39.478Z,100697.75
2023-05-11T04:42:44.772Z,100704.84
2023-05-11T04:45:55.145Z,100707.91
2023-05-11T04:49:06.346Z,100709.19
2023-05-11T04:52:14.728Z,100709.81
2023-05-11T04:55:23.290Z,100706.66
2023-05-11T04:58:30.060Z,100704.94
2023-05-11T05:01:36.140Z,100698.81
2023-05-11T05:04:41.900Z,100694.16
2023-05-11T05:07:47.427Z,100698.75
2023-05-11T05:10:52.969Z,100699.50
2023-05-11T05:13:58.587Z,100703.84
2023-05-11T05:17:03.855Z,100713.56
2023-05-11T05:20:10.020Z,100711.19
2023-05-11T05:23:15.142Z,100717.81
2023-05-11T05:26:20.404Z,100723.41
2023-05-11T05:29:27.164Z,100721.97
2023-05-11T05:32:33.106Z,100721.66
2023-05-11T05:35:38.592Z,100715.19
2023-05-11T05:38:43.818Z,100716.13
2023-05-11T05:41:50.380Z,100715.75
2023-05-11T05:44:56.796Z,100710.94
2023-05-11T05:48:02.466Z,100703.78
2023-05-11T05:51:08.566Z,100709.31
2023-05-11T05:54:14.862Z,100714.56
2023-05-11T05:57:21.313Z,100717.16
2023-05-11T06:00:26.928Z,100716.38
2023-05-11T06:03:40.570Z,100714.25
2023-05-11T06:06:46.789Z,100713.75
2023-05-11T06:09:52.201Z,100724.47
2023-05-11T06:12:57.834Z,100718.69
2023-05-11T06:16:06.120Z,100717.34
2023-05-11T06:19:13.679Z,100719.06
2023-05-11T06:22:19.287Z,100717.44
2023-05-11T06:25:28.142Z,100718.78
2023-05-11T06:28:34.792Z,100707.41
2023-05-11T06:31:44.258Z,100704.41
2023-05-11T06:34:49.752Z,100702.13
2023-05-11T06:37:55.613Z,100705.59
2023-05-11T06:41:01.806Z,100707.25
2023-05-11T06:44:07.093Z,100698.88
2023-05-11T06:47:16.270Z,100698.16
2023-05-11T06:50:22.215Z,100694.09
2023-05-11T06:53:28.854Z,100692.47
2023-05-11T06:56:37.380Z,100688.28
2023-05-11T06:59:42.726Z,100693.50
2023-05-11T07:02:48.254Z,100692.44
2023-05-11T07:05:54.583Z,100704.16
2023-05-11T07:08:59.956Z,100702.66
2023-05-11T07:12:05.718Z,100699.13
2023-05-11T07:15:11.379Z,100704.47
2023-05-11T07:18:17.557Z,100715.56
2023-05-11T07:21:23.422Z,100719.22
2023-05-11T07:24:29.035Z,100721.09
2023-05-11T07:27:35.016Z,100721.63
2023-05-11T07:30:40.746Z,100723.03
2023-05-11T07:33:45.900Z,100716.91
2023-05-11T07:36:51.786Z,100705.88
2023-05-11T07:39:57.192Z,100702.03
2023-05-11T07:43:02.475Z,100707.34
2023-05-11T07:46:07.992Z,100707.97
2023-05-11T07:49:19.005Z,100709.59
2023-05-11T07:52:31.150Z,100706.59
2023-05-11T07:55:36.901Z,100703.19
2023-05-11T07:58:42.548Z,100701.81
2023-05-11T08:01:48.021Z,100710.84
2023-05-11T08:04:53.764Z,100701.19
2023-05-11T08:07:59.439Z,100698.75
2023-05-11T08:11:06.153Z,100699.56
2023-05-11T08:14:11.553Z,100711.94
2023-05-11T08:17:17.006Z,100713.56
2023-05-11T08:20:22.419Z,100708.44
2023-05-11T08:23:27.852Z,100710.88
2023-05-11T08:26:33.742Z,100717.31
2023-05-11T08:29:39.167Z,100717.34
2023-05-11T08:35:53.804Z,100716.44
2023-05-11T08:38:59.906Z,100718.19
2023-05-11T08:42:07.381Z,100717.88
2023-05-11T08:45:13.332Z,100723.44
2023-05-11T08:48:21.209Z,100717.63
2023-05-11T08:51:28.505Z,100728.31
2023-05-11T08:54:34.071Z,100727.44
2023-05-11T08:57:41.656Z,100726.81
2023-05-11T09:00:51.779Z,100725.78
2023-05-11T09:03:58.566Z,100723.06
2023-05-11T09:07:05.152Z,100734.03
2023-05-11T09:10:12.995Z,100737.00
2023-05-11T09:13:19.463Z,100739.13
2023-05-11T09:16:36.132Z,100720.78
2023-05-11T09:19:59.586Z,100729.78
2023-05-11T09:23:04.996Z,100733.19
2023-05-11T09:26:15.504Z,100743.53
2023-05-11T09:29:21.543Z,100751.00
2023-05-11T09:32:26.858Z,100746.41
2023-05-11T09:35:34.670Z,100751.38
2023-05-11T09:38:40.622Z,100748.75
2023-05-11T09:41:46.363Z,100743.28
2023-05-11T09:44:53.124Z,100741.13
2023-05-11T09:47:58.930Z,100740.56
2023-05-11T09:51:07.030Z,100735.00
2023-05-11T09:54:19.206Z,100737.94
2023-05-11T09:57:29.986Z,100737.13
2023-05-11T10:00:35.675Z,100726.78
2023-05-11T10:04:08.902Z,100736.31
2023-05-11T10:07:30.707Z,100735.19
2023-05-11T10:10:36.325Z,100731.22
2023-05-11T10:13:45.082Z,100733.22
2023-05-11T10:16:51.706Z,100740.84
2023-05-11T10:19:59.001Z,100742.09
2023-05-11T10:23:06.373Z,100738.28
2023-05-11T10:26:12.212Z,100734.19
2023-05-11T10:29:19.836Z,100741.63
2023-05-11T10:32:26.329Z,100736.31
2023-05-11T10:35:32.029Z,100742.69
2023-05-11T10:38:37.939Z,100735.91
2023-05-11T10:42:15.533Z,100733.78
2023-05-11T10:45:32.667Z,100736.25
2023-05-11T10:48:59.134Z,100731.19
2023-05-11T10:52:24.354Z,100736.81
2023-05-11T10:55:38.692Z,100733.69
2023-05-11T10:59:11.736Z,100733.97
2023-05-11T11:02:18.935Z,100728.91
2023-05-11T11:05:35.385Z,100720.50
2023-05-11T11:08:58.542Z,100714.66
2023-05-11T11:12:10.339Z,100717.44
2023-05-11T11:15:16.416Z,100713.75
2023-05-11T11:18:30.978Z,100713.75
2023-05-11T11:21:41.985Z,100717.13
2023-05-11T11:24:47.505Z,100716.34
2023-05-11T11:27:53.394Z,100712.03
2023-05-11T11:31:34.639Z,100709.59
2023-05-11T11:34:40.234Z,100705.06
2023-05-11T11:38:03.930Z,100698.53
2023-05-11T11:41:09.752Z,100702.81
2023-05-11T11:44:22.315Z,100705.69
2023-05-11T11:47:27.926Z,100710.19
2023-05-11T11:50:34.320Z,100711.34
2023-05-11T11:53:41.267Z,100708.38
2023-05-11T11:56:47.072Z,100712.56
2023-05-11T11:59:53.610Z,100701.19
2023-05-11T12:02:59.952Z,100696.69
2023-05-11T12:06:08.241Z,100701.50
2023-05-11T12:09:18.704Z,100703.00
2023-05-11T12:12:24.590Z,100702.41
2023-05-11T12:15:35.060Z,100696.72
2023-05-11T12:18:42.284Z,100698.34
2023-05-11T12:21:47.965Z,100691.69
2023-05-11T12:24:59.649Z,100691.69
2023-05-11T12:28:06.177Z,100693.84
2023-05-11T12:31:11.529Z,100681.50
2023-05-11T12:34:19.106Z,100684.94
2023-05-11T12:37:25.014Z,100679.56
2023-05-11T12:40:31.668Z,100683.72
2023-05-11T12:43:38.069Z,100674.59
2023-05-11T12:46:48.784Z,100669.25
2023-05-11T12:49:54.374Z,100667.03
2023-05-11T12:53:20.163Z,100665.72
2023-05-11T12:56:25.590Z,100664.69
2023-05-11T12:59:35.716Z,100664.41
2023-05-11T13:02:55.160Z,100664.44
2023-05-11T13:06:19.505Z,100664.19
2023-05-11T13:09:26.113Z,100669.56
2023-05-11T13:12:33.105Z,100662.66
2023-05-11T13:15:52.228Z,100652.97
2023-05-11T13:19:08.908Z,100660.28
2023-05-11T13:22:14.420Z,100661.59
2023-05-11T13:25:21.695Z,100679.06
2023-05-11T13:28:27.993Z,100658.91
2023-05-11T13:31:33.684Z,100665.38
2023-05-11T13:34:39.255Z,100667.81
2023-05-11T13:37:44.812Z,100665.13
2023-05-11T13:40:50.322Z,100660.59
2023-05-11T13:43:56.416Z,100657.34
2023-05-11T13:47:02.091Z,100650.38
2023-05-11T13:50:09.455Z,100647.69
2023-05-11T13:53:14.992Z,100649.03
2023-05-11T13:56:21.800Z,100650.94
2023-05-11T13:59:27.219Z,100649.31
2023-05-11T14:02:33.155Z,100646.88
2023-05-11T14:05:39.423Z,100655.75
2023-05-11T14:08:45.430Z,100652.22
2023-05-11T14:11:51.451Z,100651.47
2023-05-11T14:14:57.105Z,100653.06
2023-05-11T14:18:05.648Z,100637.44
2023-05-11T14:21:12.245Z,100638.03
2023-05-11T14:24:18.078Z,100631.78
2023-05-11T14:27:24.152Z,100631.00
2023-05-11T14:30:29.816Z,100623.47
2023-05-11T14:33:35.478Z,100644.41
2023-05-11T14:36:41.132Z,100640.91
2023-05-11T14:39:46.557Z,100650.06
2023-05-11T14:42:51.816Z,100637.13
2023-05-11T14:45:57.693Z,100639.88
2023-05-11T14:49:03.464Z,100648.22
2023-05-11T14:52:10.835Z,100646.84
2023-05-11T14:55:17.193Z,100639.03
2023-05-11T14:58:23.258Z,100646.78
2023-05-11T15:01:28.653Z,100641.72
2023-05-11T15:04:34.621Z,100656.44
2023-05-11T15:07:39.904Z,100644.34
2023-05-11T15:10:45.490Z,100646.53
2023-05-11T15:13:51.004Z,100648.09
2023-05-11T15:16:59.197Z,100651.09
2023-05-11T15:20:05.371Z,100639.25
2023-05-11T15:23:11.894Z,100632.84
2023-05-11T15:26:18.754Z,100639.03
2023-05-11T15:29:25.654Z,100633.38
2023-05-11T15:32:31.589Z,100642.56
2023-05-11T15:35:38.331Z,100640.66
2023-05-11T15:38:44.216Z,100643.84
2023-05-11T15:41:50.071Z,100643.34
2023-05-11T15:44:55.538Z,100652.22
2023-05-11T15:48:01.142Z,100637.72
2023-05-11T15:51:06.221Z,100641.47
2023-05-11T15:54:11.638Z,100643.56
2023-05-11T15:57:17.447Z,100638.22
2023-05-11T16:00:23.310Z,100636.31
2023-05-11T16:03:29.219Z,100646.19
2023-05-11T16:06:35.504Z,100642.44
2023-05-11T16:09:41.311Z,100630.63
2023-05-11T16:12:47.149Z,100641.13
2023-05-11T16:15:52.907Z,100646.19
2023-05-11T16:18:59.409Z,100652.59
2023-05-11T16:22:04.831Z,100657.19
2023-05-11T16:25:10.775Z,100661.22
2023-05-11T16:28:16.452Z,100660.69
2023-05-11T16:31:22.991Z,100661.22
2023-05-11T16:34:29.073Z,100656.66
2023-05-11T16:37:34.866Z,100659.66
2023-05-11T16:40:40.394Z,100661.19
2023-05-11T16:43:46.656Z,100666.09
2023-05-11T16:46:51.917Z,100659.59
2023-05-11T16:49:57.545Z,100660.72
2023-05-11T16:53:03.710Z,100669.03
2023-05-11T16:56:08.909Z,100670.34
2023-05-11T16:59:14.232Z,100676.72
2023-05-11T17:02:20.275Z,100683.19
2023-05-11T17:05:25.522Z,100686.34
2023-05-11T17:08:31.239Z,100687.47
2023-05-11T17:11:36.914Z,100684.16
2023-05-11T17:14:42.052Z,100689.41
2023-05-11T17:17:47.649Z,100690.06
2023-05-11T17:20:54.539Z,100700.44
2023-05-11T17:23:59.940Z,100706.13
2023-05-11T17:27:05.982Z,100707.94
2023-05-11T17:30:11.763Z,100711.53
2023-05-11T17:33:17.593Z,100713.53
2023-05-11T17:36:22.873Z,100713.91
2023-05-11T17:39:28.486Z,100717.41
2023-05-11T17:42:35.263Z,100727.19
2023-05-11T17:45:40.546Z,100721.75
2023-05-11T17:48:46.022Z,100724.41
2023-05-11T17:51:51.534Z,100721.72
2023-05-11T17:54:57.362Z,100718.97
2023-05-11T17:58:03.034Z,100723.78
2023-05-11T18:01:09.439Z,100726.38
2023-05-11T18:04:15.472Z,100724.88
2023-05-11T18:07:21.264Z,100721.56
2023-05-11T18:10:26.434Z,100724.88
2023-05-11T18:13:32.112Z,100733.19
2023-05-11T18:16:38.080Z,100724.25
2023-05-11T18:19:43.555Z,100727.44
2023-05-11T18:22:49.141Z,100729.78
2023-05-11T18:25:54.446Z,100736.78
2023-05-11T18:28:59.922Z,100733.28
2023-05-11T18:32:05.717Z,100741.25
2023-05-11T18:35:11.053Z,100739.63
2023-05-11T18:38:16.852Z,100752.34
2023-05-11T18:41:22.878Z,100755.41
2023-05-11T18:44:28.722Z,100758.38
2023-05-11T18:47:36.132Z,100763.72
2023-05-11T18:50:57.581Z,100767.78
2023-05-11T18:54:03.189Z,100764.50
2023-05-11T18:57:09.841Z,100776.72
2023-05-11T19:00:16.302Z,100772.00
2023-05-11T19:03:22.561Z,100775.44
2023-05-11T19:06:28.522Z,100776.97
2023-05-11T19:09:35.163Z,100777.47
2023-05-11T19:12:40.433Z,100783.88
2023-05-11T19:15:45.850Z,100786.97
2023-05-11T19:18:51.103Z,100785.47
2023-05-11T19:21:56.537Z,100805.69
2023-05-11T19:25:01.691Z,100800.00
2023-05-11T19:28:12.558Z,100799.84
2023-05-11T19:31:20.233Z,100800.00
2023-05-11T19:34:26.291Z,100797.66
2023-05-11T19:37:33.256Z,100790.19
2023-05-11T19:40:46.086Z,100792.81
2023-05-11T19:43:53.094Z,100793.19
2023-05-11T19:46:59.852Z,100800.16
2023-05-11T19:50:09.551Z,100809.88
2023-05-11T19:53:15.429Z,100813.31
2023-05-11T19:56:21.883Z,100825.09
2023-05-11T19:59:33.272Z,100823.75
2023-05-11T20:02:38.664Z,100830.13
2023-05-11T20:05:44.648Z,100833.06
2023-05-11T20:08:51.765Z,100831.34
2023-05-11T20:11:57.655Z,100841.16
2023-05-11T20:15:03.389Z,100846.00
2023-05-11T20:18:09.649Z,100849.25
2023-05-11T20:21:15.888Z,100856.94
2023-05-11T20:24:21.380Z,100857.84
2023-05-11T20:27:26.959Z,100850.47
2023-05-11T20:30:33.280Z,100855.16
2023-05-11T20:36:49.013Z,100853.47
2023-05-11T20:39:54.521Z,100852.59
2023-05-11T20:42:59.735Z,100853.91
2023-05-11T20:46:05.752Z,100852.91
2023-05-11T20:49:22.246Z,100852.19
2023-05-11T20:52:34.112Z,100853.09
2023-05-11T20:55:39.698Z,100854.78
2023-05-11T20:58:47.605Z,100847.56
2023-05-11T21:01:53.613Z,100852.81
2023-05-11T21:05:02.655Z,100843.75
2023-05-11T21:08:08.283Z,100854.53
2023-05-11T21:11:13.722Z,100849.03
2023-05-11T21:14:19.324Z,100853.41
2023-05-11T21:17:25.005Z,100847.19
2023-05-11T21:20:30.796Z,100847.19
2023-05-11T21:23:36.456Z,100852.19
2023-05-11T21:26:42.535Z,100846.91
2023-05-11T21:29:48.470Z,100837.03
2023-05-11T21:32:54.107Z,100851.22
2023-05-11T21:35:59.701Z,100847.84
2023-05-11T21:39:05.351Z,100851.84
2023-05-11T21:42:10.886Z,100848.78
2023-05-11T21:45:16.392Z,100856.47
2023-05-11T21:48:22.219Z,100859.00
2023-05-11T21:51:28.136Z,100858.00
2023-05-11T21:54:34.186Z,100863.44
2023-05-11T21:57:40.116Z,100851.97
2023-05-11T22:00:46.574Z,100861.56
2023-05-11T22:03:52.314Z,100865.06
2023-05-11T22:07:01.747Z,100863.50
2023-05-11T22:10:07.902Z,100863.50
2023-05-11T22:13:13.442Z,100865.38
2023-05-11T22:16:19.365Z,100864.06
2023-05-11T22:19:24.868Z,100863.84
2023-05-11T22:22:29.910Z,100864.91
2023-05-11T22:25:35.402Z,100868.31
2023-05-11T22:28:40.655Z,100869.66
2023-05-11T22:31:46.441Z,100868.31
2023-05-11T22:35:01.710Z,100868.94
2023-05-11T22:38:07.062Z,100873.50
2023-05-11T22:41:12.400Z,100869.03
2023-05-11T22:44:18.092Z,100860.78
2023-05-11T22:47:23.902Z,100865.81
2023-05-11T22:50:30.218Z,100863.63
2023-05-11T22:53:36.071Z,100856.94
2023-05-11T22:56:41.364Z,100869.66
2023-05-11T22:59:47.015Z,100859.53
2023-05-11T23:02:52.104Z,100857.34
2023-05-11T23:05:57.954Z,100867.56
2023-05-11T23:09:05.316Z,100865.13
2023-05-11T23:12:11.105Z,100868.44
2023-05-11T23:15:16.352Z,100878.47
2023-05-11T23:18:22.561Z,100877.47
2023-05-11T23:21:28.406Z,100879.34
2023-05-11T23:24:33.651Z,100873.41
2023-05-11T23:27:39.141Z,100870.00
2023-05-11T23:30:46.448Z,100873.72
2023-05-11T23:33:51.686Z,100870.00
2023-05-11T23:36:56.928Z,100874.22
2023-05-11T23:40:02.620Z,100870.50
2023-05-11T23:43:09.054Z,100869.09
2023-05-11T23:46:14.879Z,100869.66
2023-05-11T23:49:20.926Z,100863.28
2023-05-11T23:52:26.115Z,100868.03
2023-05-11T23:55:31.402Z,100868.38
2023-05-11T23:58:36.656Z,100871.53
